sensor_id;sensor_type;location;lat;lon;timestamp;pressure;altitude;pressure_sealevel;temperature;humidity
72857;BME280;62742;52.136;4.500;2023-03-01T00:01:21;103371.84;;;0.28;87.70
72857;BME280;62742;52.136;4.500;2023-03-01T00:03:50;103372.31;;;0.23;87.55
72857;BME280;62742;52.136;4.500;2023-03-01T00:06:17;103375.06;;;0.12;87.71
72857;BME280;62742;52.136;4.500;2023-03-01T00:08:44;103378.31;;;0.10;89.22
72857;BME280;62742;52.136;4.500;2023-03-01T00:11:14;103368.16;;;-0.01;89.20
72857;BME280;62742;52.136;4.500;2023-03-01T00:13:44;103366.56;;;0.02;90.79
72857;BME280;62742;52.136;4.500;2023-03-01T00:16:22;103362.94;;;0.11;89.82
72857;BME280;62742;52.136;4.500;2023-03-01T00:18:51;103364.94;;;0.15;90.51
72857;BME280;62742;52.136;4.500;2023-03-01T00:21:20;103357.75;;;0.11;91.32
72857;BME280;62742;52.136;4.500;2023-03-01T00:23:49;103361.75;;;0.20;91.00
72857;BME280;62742;52.136;4.500;2023-03-01T00:26:17;103357.97;;;0.14;91.20
72857;BME280;62742;52.136;4.500;2023-03-01T00:28:46;103359.56;;;0.12;91.33
72857;BME280;62742;52.136;4.500;2023-03-01T00:31:15;103353.53;;;0.25;90.53
72857;BME280;62742;52.136;4.500;2023-03-01T00:33:44;103350.81;;;0.10;90.89
72857;BME280;62742;52.136;4.500;2023-03-01T00:36:14;103351.91;;;0.14;91.72
72857;BME280;62742;52.136;4.500;2023-03-01T00:38:43;103352.03;;;0.15;90.80
72857;BME280;62742;52.136;4.500;2023-03-01T00:41:14;103343.72;;;0.33;92.33
72857;BME280;62742;52.136;4.500;2023-03-01T00:43:43;103349.50;;;0.17;91.50
72857;BME280;62742;52.136;4.500;2023-03-01T00:46:14;103352.25;;;0.07;91.53
72857;BME280;62742;52.136;4.500;2023-03-01T00:48:42;103349.00;;;0.09;92.53
72857;BME280;62742;52.136;4.500;2023-03-01T00:51:11;103349.69;;;0.07;92.10
72857;BME280;62742;52.136;4.500;2023-03-01T00:53:40;103350.59;;;0.07;93.09
72857;BME280;62742;52.136;4.500;2023-03-01T00:56:09;103345.31;;;0.06;93.65
72857;BME280;62742;52.136;4.500;2023-03-01T00:58:38;103354.03;;;-0.06;93.65
72857;BME280;62742;52.136;4.500;2023-03-01T01:03:57;103344.06;;;0.12;93.34
72857;BME280;62742;52.136;4.500;2023-03-01T01:06:35;103343.41;;;0.03;93.58
72857;BME280;62742;52.136;4.500;2023-03-01T01:09:10;103345.22;;;0.04;93.23
72857;BME280;62742;52.136;4.500;2023-03-01T01:11:46;103343.78;;;-0.04;93.04
72857;BME280;62742;52.136;4.500;2023-03-01T01:14:15;103346.16;;;-0.07;93.39
72857;BME280;62742;52.136;4.500;2023-03-01T01:16:43;103336.03;;;-0.04;93.66
72857;BME280;62742;52.136;4.500;2023-03-01T01:19:11;103339.22;;;-0.08;93.28
72857;BME280;62742;52.136;4.500;2023-03-01T01:21:38;103338.84;;;-0.01;93.61
72857;BME280;62742;52.136;4.500;2023-03-01T01:24:04;103337.25;;;0.01;93.49
72857;BME280;62742;52.136;4.500;2023-03-01T01:26:33;103334.72;;;-0.11;92.96
72857;BME280;62742;52.136;4.500;2023-03-01T01:29:02;103327.44;;;-0.16;93.36
72857;BME280;62742;52.136;4.500;2023-03-01T01:31:31;103320.91;;;-0.11;93.79
72857;BME280;62742;52.136;4.500;2023-03-01T01:34:00;103322.66;;;-0.24;93.46
72857;BME280;62742;52.136;4.500;2023-03-01T01:36:28;103318.44;;;-0.35;93.99
72857;BME280;62742;52.136;4.500;2023-03-01T01:38:55;103316.44;;;-0.39;94.62
72857;BME280;62742;52.136;4.500;2023-03-01T01:41:23;103302.41;;;-0.43;94.37
72857;BME280;62742;52.136;4.500;2023-03-01T01:49:43;103290.88;;;-0.48;94.78
72857;BME280;62742;52.136;4.500;2023-03-01T01:52:36;103277.16;;;-0.47;94.91
72857;BME280;62742;52.136;4.500;2023-03-01T01:55:10;103275.47;;;-0.71;94.12
72857;BME280;62742;52.136;4.500;2023-03-01T01:57:44;103278.16;;;-0.70;95.63
72857;BME280;62742;52.136;4.500;2023-03-01T02:00:16;103279.91;;;-0.69;95.85
72857;BME280;62742;52.136;4.500;2023-03-01T02:02:47;103281.94;;;-0.65;96.00
72857;BME280;62742;52.136;4.500;2023-03-01T02:08:01;103284.38;;;-0.54;97.02
72857;BME280;62742;52.136;4.500;2023-03-01T02:10:28;103286.38;;;-0.50;97.00
72857;BME280;62742;52.136;4.500;2023-03-01T02:13:00;103283.00;;;-0.49;96.83
72857;BME280;62742;52.136;4.500;2023-03-01T02:15:33;103280.09;;;-0.54;96.79
72857;BME280;62742;52.136;4.500;2023-03-01T02:18:02;103277.84;;;-0.49;96.90
72857;BME280;62742;52.136;4.500;2023-03-01T02:23:19;103273.50;;;-0.62;96.92
72857;BME280;62742;52.136;4.500;2023-03-01T02:28:47;103266.47;;;-0.65;96.93
72857;BME280;62742;52.136;4.500;2023-03-01T02:31:18;103271.63;;;-0.65;97.10
72857;BME280;62742;52.136;4.500;2023-03-01T02:34:06;103274.97;;;-0.66;97.25
72857;BME280;62742;52.136;4.500;2023-03-01T02:36:37;103269.59;;;-0.69;97.34
72857;BME280;62742;52.136;4.500;2023-03-01T02:39:12;103269.97;;;-0.76;96.79
72857;BME280;62742;52.136;4.500;2023-03-01T02:41:47;103270.72;;;-0.77;97.56
72857;BME280;62742;52.136;4.500;2023-03-01T02:44:18;103270.28;;;-0.71;97.90
72857;BME280;62742;52.136;4.500;2023-03-01T02:46:47;103260.72;;;-0.61;97.86
72857;BME280;62742;52.136;4.500;2023-03-01T02:49:27;103263.31;;;-0.72;96.93
72857;BME280;62742;52.136;4.500;2023-03-01T02:55:11;103255.63;;;-0.84;97.46
72857;BME280;62742;52.136;4.500;2023-03-01T02:57:44;103255.06;;;-0.80;96.84
72857;BME280;62742;52.136;4.500;2023-03-01T03:00:23;103252.69;;;-0.89;96.81
72857;BME280;62742;52.136;4.500;2023-03-01T03:02:53;103253.97;;;-0.96;96.98
72857;BME280;62742;52.136;4.500;2023-03-01T03:05:27;103240.28;;;-0.95;96.53
72857;BME280;62742;52.136;4.500;2023-03-01T03:07:56;103237.00;;;-0.80;96.04
72857;BME280;62742;52.136;4.500;2023-03-01T03:10:32;103243.44;;;-0.99;95.93
72857;BME280;62742;52.136;4.500;2023-03-01T03:13:03;103229.97;;;-1.06;95.62
72857;BME280;62742;52.136;4.500;2023-03-01T03:15:31;103239.88;;;-1.13;95.66
72857;BME280;62742;52.136;4.500;2023-03-01T03:18:04;103229.94;;;-0.95;96.02
72857;BME280;62742;52.136;4.500;2023-03-01T03:20:33;103233.53;;;-0.92;97.25
72857;BME280;62742;52.136;4.500;2023-03-01T03:23:00;103231.75;;;-0.93;97.09
72857;BME280;62742;52.136;4.500;2023-03-01T03:25:28;103233.41;;;-0.94;97.03
72857;BME280;62742;52.136;4.500;2023-03-01T03:27:56;103228.38;;;-0.92;97.18
72857;BME280;62742;52.136;4.500;2023-03-01T03:30:26;103233.97;;;-0.86;97.92
72857;BME280;62742;52.136;4.500;2023-03-01T03:32:56;103222.06;;;-0.84;97.66
72857;BME280;62742;52.136;4.500;2023-03-01T03:35:29;103227.00;;;-0.87;97.67
72857;BME280;62742;52.136;4.500;2023-03-01T03:37:59;103224.78;;;-0.95;97.69
72857;BME280;62742;52.136;4.500;2023-03-01T03:40:39;103225.38;;;-0.99;97.94
72857;BME280;62742;52.136;4.500;2023-03-01T03:43:13;103230.66;;;-0.97;98.40
72857;BME280;62742;52.136;4.500;2023-03-01T03:45:44;103220.50;;;-0.94;98.07
72857;BME280;62742;52.136;4.500;2023-03-01T03:48:11;103216.97;;;-1.08;97.99
72857;BME280;62742;52.136;4.500;2023-03-01T03:50:39;103219.78;;;-1.05;98.03
72857;BME280;62742;52.136;4.500;2023-03-01T03:53:11;103215.41;;;-1.06;98.66
72857;BME280;62742;52.136;4.500;2023-03-01T03:55:38;103211.47;;;-1.01;98.12
72857;BME280;62742;52.136;4.500;2023-03-01T03:58:07;103218.00;;;-1.06;98.37
72857;BME280;62742;52.136;4.500;2023-03-01T04:00:38;103210.25;;;-1.06;98.35
72857;BME280;62742;52.136;4.500;2023-03-01T04:03:06;103215.19;;;-1.09;98.39
72857;BME280;62742;52.136;4.500;2023-03-01T04:05:33;103222.09;;;-0.96;98.53
72857;BME280;62742;52.136;4.500;2023-03-01T04:08:01;103216.06;;;-0.97;98.27
72857;BME280;62742;52.136;4.500;2023-03-01T04:10:42;103217.91;;;-0.82;97.97
72857;BME280;62742;52.136;4.500;2023-03-01T04:13:13;103221.00;;;-1.00;97.30
72857;BME280;62742;52.136;4.500;2023-03-01T04:15:41;103221.13;;;-1.10;97.15
72857;BME280;62742;52.136;4.500;2023-03-01T04:18:13;103222.72;;;-1.12;97.55
72857;BME280;62742;52.136;4.500;2023-03-01T04:20:42;103218.31;;;-1.13;97.27
72857;BME280;62742;52.136;4.500;2023-03-01T04:23:16;103208.91;;;-1.01;97.22
72857;BME280;62742;52.136;4.500;2023-03-01T04:25:54;103207.34;;;-1.10;96.17
72857;BME280;62742;52.136;4.500;2023-03-01T04:31:02;103208.38;;;-1.20;96.82
72857;BME280;62742;52.136;4.500;2023-03-01T04:33:47;103207.38;;;-1.22;97.91
72857;BME280;62742;52.136;4.500;2023-03-01T04:36:21;103214.56;;;-1.30;97.34
72857;BME280;62742;52.136;4.500;2023-03-01T04:38:50;103206.50;;;-1.35;96.88
72857;BME280;62742;52.136;4.500;2023-03-01T04:41:19;103200.44;;;-1.35;97.19
72857;BME280;62742;52.136;4.500;2023-03-01T04:43:48;103207.19;;;-1.49;96.71
72857;BME280;62742;52.136;4.500;2023-03-01T04:46:17;103202.59;;;-1.53;96.78
72857;BME280;62742;52.136;4.500;2023-03-01T04:48:45;103197.56;;;-1.52;96.74
72857;BME280;62742;52.136;4.500;2023-03-01T04:51:13;103196.88;;;-1.61;96.78
72857;BME280;62742;52.136;4.500;2023-03-01T04:53:41;103196.09;;;-1.48;96.97
72857;BME280;62742;52.136;4.500;2023-03-01T04:56:09;103186.56;;;-1.49;96.21
72857;BME280;62742;52.136;4.500;2023-03-01T04:58:36;103186.13;;;-1.43;96.55
72857;BME280;62742;52.136;4.500;2023-03-01T05:01:26;103170.84;;;-1.52;96.30
72857;BME280;62742;52.136;4.500;2023-03-01T05:03:52;103175.13;;;-1.53;96.73
72857;BME280;62742;52.136;4.500;2023-03-01T05:06:20;103172.31;;;-1.56;96.60
72857;BME280;62742;52.136;4.500;2023-03-01T05:08:47;103178.94;;;-1.59;96.63
72857;BME280;62742;52.136;4.500;2023-03-01T05:11:13;103179.19;;;-1.68;96.29
72857;BME280;62742;52.136;4.500;2023-03-01T05:13:41;103181.22;;;-1.76;96.18
72857;BME280;62742;52.136;4.500;2023-03-01T05:16:08;103178.53;;;-1.77;96.77
72857;BME280;62742;52.136;4.500;2023-03-01T05:18:39;103182.56;;;-1.81;97.00
72857;BME280;62742;52.136;4.500;2023-03-01T05:21:12;103179.06;;;-1.81;96.76
72857;BME280;62742;52.136;4.500;2023-03-01T05:23:42;103179.19;;;-1.92;96.57
72857;BME280;62742;52.136;4.500;2023-03-01T05:26:09;103173.91;;;-1.93;96.66
72857;BME280;62742;52.136;4.500;2023-03-01T05:28:35;103160.59;;;-1.88;96.79
72857;BME280;62742;52.136;4.500;2023-03-01T05:31:04;103167.88;;;-1.94;96.21
72857;BME280;62742;52.136;4.500;2023-03-01T05:33:39;103150.84;;;-2.03;96.18
72857;BME280;62742;52.136;4.500;2023-03-01T05:36:08;103148.84;;;-2.08;95.75
72857;BME280;62742;52.136;4.500;2023-03-01T05:38:36;103144.47;;;-2.09;95.33
72857;BME280;62742;52.136;4.500;2023-03-01T05:41:02;103147.50;;;-2.02;95.32
72857;BME280;62742;52.136;4.500;2023-03-01T05:43:33;103144.16;;;-2.01;95.30
72857;BME280;62742;52.136;4.500;2023-03-01T05:46:00;103148.06;;;-2.07;95.43
72857;BME280;62742;52.136;4.500;2023-03-01T05:48:26;103144.03;;;-2.03;95.66
72857;BME280;62742;52.136;4.500;2023-03-01T05:50:53;103143.56;;;-2.09;95.24
72857;BME280;62742;52.136;4.500;2023-03-01T05:53:19;103137.88;;;-2.17;95.10
72857;BME280;62742;52.136;4.500;2023-03-01T05:55:49;103132.59;;;-2.18;95.36
72857;BME280;62742;52.136;4.500;2023-03-01T05:58:19;103136.84;;;-2.19;95.47
72857;BME280;62742;52.136;4.500;2023-03-01T06:00:47;103139.41;;;-2.19;95.57
72857;BME280;62742;52.136;4.500;2023-03-01T06:03:16;103135.72;;;-2.22;96.01
72857;BME280;62742;52.136;4.500;2023-03-01T06:05:44;103125.41;;;-2.22;96.43
72857;BME280;62742;52.136;4.500;2023-03-01T06:08:11;103129.69;;;-2.23;96.44
72857;BME280;62742;52.136;4.500;2023-03-01T06:10:39;103129.44;;;-2.26;96.14
72857;BME280;62742;52.136;4.500;2023-03-01T06:13:07;103130.69;;;-2.21;96.11
72857;BME280;62742;52.136;4.500;2023-03-01T06:15:34;103131.38;;;-2.12;96.37
72857;BME280;62742;52.136;4.500;2023-03-01T06:18:00;103135.38;;;-2.15;96.84
72857;BME280;62742;52.136;4.500;2023-03-01T06:20:28;103132.38;;;-2.21;97.20
72857;BME280;62742;52.136;4.500;2023-03-01T06:22:55;103141.22;;;-2.18;97.27
72857;BME280;62742;52.136;4.500;2023-03-01T06:25:24;103134.50;;;-2.16;97.40
72857;BME280;62742;52.136;4.500;2023-03-01T06:27:51;103144.34;;;-2.10;97.62
72857;BME280;62742;52.136;4.500;2023-03-01T06:30:22;103138.31;;;-2.11;97.52
72857;BME280;62742;52.136;4.500;2023-03-01T06:32:50;103139.41;;;-2.07;97.73
72857;BME280;62742;52.136;4.500;2023-03-01T06:35:18;103132.63;;;-2.07;97.46
72857;BME280;62742;52.136;4.500;2023-03-01T06:37:46;103130.03;;;-2.07;97.86
72857;BME280;62742;52.136;4.500;2023-03-01T06:40:14;103132.81;;;-2.03;98.10
72857;BME280;62742;52.136;4.500;2023-03-01T06:42:43;103134.38;;;-2.05;97.48
72857;BME280;62742;52.136;4.500;2023-03-01T06:45:15;103134.97;;;-2.10;98.02
72857;BME280;62742;52.136;4.500;2023-03-01T06:47:42;103134.38;;;-2.05;98.10
72857;BME280;62742;52.136;4.500;2023-03-01T06:50:09;103135.38;;;-2.03;98.75
72857;BME280;62742;52.136;4.500;2023-03-01T06:52:36;103141.78;;;-1.98;98.63
72857;BME280;62742;52.136;4.500;2023-03-01T06:55:04;103138.78;;;-1.93;98.48
72857;BME280;62742;52.136;4.500;2023-03-01T06:57:31;103143.34;;;-1.89;98.50
72857;BME280;62742;52.136;4.500;2023-03-01T06:59:58;103145.25;;;-1.86;98.66
72857;BME280;62742;52.136;4.500;2023-03-01T07:02:24;103146.59;;;-1.79;98.66
72857;BME280;62742;52.136;4.500;2023-03-01T07:04:51;103150.06;;;-1.79;98.67
72857;BME280;62742;52.136;4.500;2023-03-01T07:07:18;103151.66;;;-1.81;98.57
72857;BME280;62742;52.136;4.500;2023-03-01T07:09:45;103143.56;;;-1.74;98.69
72857;BME280;62742;52.136;4.500;2023-03-01T07:12:14;103137.06;;;-1.68;99.03
72857;BME280;62742;52.136;4.500;2023-03-01T07:14:40;103134.59;;;-1.67;98.72
72857;BME280;62742;52.136;4.500;2023-03-01T07:17:06;103135.00;;;-1.61;98.48
72857;BME280;62742;52.136;4.500;2023-03-01T07:19:33;103141.50;;;-1.54;98.82
72857;BME280;62742;52.136;4.500;2023-03-01T07:21:59;103135.47;;;-1.55;98.57
72857;BME280;62742;52.136;4.500;2023-03-01T07:24:26;103140.38;;;-1.46;98.10
72857;BME280;62742;52.136;4.500;2023-03-01T07:26:52;103140.78;;;-1.28;98.13
72857;BME280;62742;52.136;4.500;2023-03-01T07:29:19;103150.84;;;-1.19;97.64
72857;BME280;62742;52.136;4.500;2023-03-01T07:31:45;103146.81;;;-1.16;97.39
72857;BME280;62742;52.136;4.500;2023-03-01T07:34:12;103146.75;;;-1.04;97.73
72857;BME280;62742;52.136;4.500;2023-03-01T07:36:38;103140.63;;;-0.92;97.72
72857;BME280;62742;52.136;4.500;2023-03-01T07:39:05;103145.06;;;-0.78;97.40
72857;BME280;62742;52.136;4.500;2023-03-01T07:41:31;103144.19;;;-0.65;97.41
72857;BME280;62742;52.136;4.500;2023-03-01T07:43:58;103150.28;;;-0.51;97.09
72857;BME280;62742;52.136;4.500;2023-03-01T07:46:24;103143.50;;;-0.38;97.08
72857;BME280;62742;52.136;4.500;2023-03-01T07:48:50;103139.81;;;-0.28;97.11
72857;BME280;62742;52.136;4.500;2023-03-01T07:51:17;103151.75;;;-0.16;97.02
72857;BME280;62742;52.136;4.500;2023-03-01T07:53:45;103148.28;;;0.10;97.16
72857;BME280;62742;52.136;4.500;2023-03-01T07:56:15;103145.81;;;0.25;97.03
72857;BME280;62742;52.136;4.500;2023-03-01T07:58:44;103142.59;;;0.42;96.88
72857;BME280;62742;52.136;4.500;2023-03-01T08:01:14;103143.97;;;0.64;96.61
72857;BME280;62742;52.136;4.500;2023-03-01T08:03:42;103137.94;;;0.78;96.92
72857;BME280;62742;52.136;4.500;2023-03-01T08:06:11;103143.56;;;0.99;96.96
72857;BME280;62742;52.136;4.500;2023-03-01T08:08:39;103134.94;;;1.28;97.01
72857;BME280;62742;52.136;4.500;2023-03-01T08:11:07;103137.00;;;1.64;96.24
72857;BME280;62742;52.136;4.500;2023-03-01T08:13:36;103136.84;;;1.76;93.82
72857;BME280;62742;52.136;4.500;2023-03-01T08:16:02;103146.69;;;1.66;91.86
72857;BME280;62742;52.136;4.500;2023-03-01T08:18:31;103145.06;;;1.39;92.29
72857;BME280;62742;52.136;4.500;2023-03-01T08:21:06;103138.81;;;1.80;92.25
72857;BME280;62742;52.136;4.500;2023-03-01T08:23:34;103130.22;;;1.96;92.00
72857;BME280;62742;52.136;4.500;2023-03-01T08:26:06;103127.97;;;2.33;92.13
72857;BME280;62742;52.136;4.500;2023-03-01T08:28:45;103128.34;;;2.56;91.50
72857;BME280;62742;52.136;4.500;2023-03-01T08:31:21;103122.59;;;2.78;90.92
72857;BME280;62742;52.136;4.500;2023-03-01T08:33:52;103116.88;;;2.84;89.73
72857;BME280;62742;52.136;4.500;2023-03-01T08:36:40;103123.19;;;2.72;89.39
72857;BME280;62742;52.136;4.500;2023-03-01T08:39:14;103119.63;;;3.03;87.98
72857;BME280;62742;52.136;4.500;2023-03-01T08:41:42;103116.25;;;3.22;86.75
72857;BME280;62742;52.136;4.500;2023-03-01T08:44:09;103110.28;;;3.41;86.60
72857;BME280;62742;52.136;4.500;2023-03-01T08:46:39;103113.81;;;3.60;85.09
72857;BME280;62742;52.136;4.500;2023-03-01T08:49:13;103114.88;;;3.63;83.27
72857;BME280;62742;52.136;4.500;2023-03-01T08:51:41;103115.97;;;3.50;82.68
72857;BME280;62742;52.136;4.500;2023-03-01T08:54:26;103102.94;;;3.32;83.71
72857;BME280;62742;52.136;4.500;2023-03-01T08:56:52;103113.47;;;3.52;83.76
72857;BME280;62742;52.136;4.500;2023-03-01T08:59:19;103112.94;;;3.77;81.81
72857;BME280;62742;52.136;4.500;2023-03-01T09:01:45;103117.56;;;3.65;83.01
72857;BME280;62742;52.136;4.500;2023-03-01T09:04:12;103119.22;;;3.46;83.36
72857;BME280;62742;52.136;4.500;2023-03-01T09:06:40;103118.66;;;3.70;83.59
72857;BME280;62742;52.136;4.500;2023-03-01T09:09:07;103118.34;;;3.98;83.42
72857;BME280;62742;52.136;4.500;2023-03-01T09:11:41;103121.66;;;4.14;82.41
72857;BME280;62742;52.136;4.500;2023-03-01T09:14:08;103113.25;;;4.19;83.06
72857;BME280;62742;52.136;4.500;2023-03-01T09:16:35;103110.41;;;4.33;82.99
72857;BME280;62742;52.136;4.500;2023-03-01T09:19:02;103114.00;;;4.54;80.75
72857;BME280;62742;52.136;4.500;2023-03-01T09:21:29;103106.50;;;4.60;79.26
72857;BME280;62742;52.136;4.500;2023-03-01T09:23:57;103103.81;;;4.59;77.77
72857;BME280;62742;52.136;4.500;2023-03-01T09:26:24;103111.16;;;4.30;80.05
72857;BME280;62742;52.136;4.500;2023-03-01T09:28:54;103100.88;;;4.71;79.99
72857;BME280;62742;52.136;4.500;2023-03-01T09:31:23;103099.22;;;4.73;79.69
72857;BME280;62742;52.136;4.500;2023-03-01T09:33:52;103094.63;;;4.86;79.45
72857;BME280;62742;52.136;4.500;2023-03-01T09:36:22;103097.31;;;4.88;78.20
72857;BME280;62742;52.136;4.500;2023-03-01T09:38:51;103086.28;;;4.74;78.80
72857;BME280;62742;52.136;4.500;2023-03-01T09:41:42;103088.69;;;4.89;78.83
72857;BME280;62742;52.136;4.500;2023-03-01T09:44:36;103093.41;;;4.98;76.39
72857;BME280;62742;52.136;4.500;2023-03-01T09:47:24;103090.31;;;5.28;76.05
72857;BME280;62742;52.136;4.500;2023-03-01T09:50:12;103079.44;;;5.57;73.98
72857;BME280;62742;52.136;4.500;2023-03-01T09:53:02;103082.56;;;5.29;71.44
72857;BME280;62742;52.136;4.500;2023-03-01T09:55:40;103078.19;;;5.91;71.07
72857;BME280;62742;52.136;4.500;2023-03-01T10:06:29;103078.66;;;6.71;65.12
72857;BME280;62742;52.136;4.500;2023-03-01T10:09:02;103072.59;;;6.72;64.25
72857;BME280;62742;52.136;4.500;2023-03-01T10:11:40;103073.41;;;6.47;63.24
72857;BME280;62742;52.136;4.500;2023-03-01T10:14:38;103064.78;;;6.98;64.36
72857;BME280;62742;52.136;4.500;2023-03-01T10:19:46;103060.13;;;6.89;66.34
72857;BME280;62742;52.136;4.500;2023-03-01T10:22:19;103060.75;;;7.32;66.52
72857;BME280;62742;52.136;4.500;2023-03-01T10:24:49;103056.50;;;7.36;65.69
72857;BME280;62742;52.136;4.500;2023-03-01T10:32:53;103045.56;;;7.75;63.30
72857;BME280;62742;52.136;4.500;2023-03-01T10:35:25;103033.91;;;7.65;61.88
72857;BME280;62742;52.136;4.500;2023-03-01T10:38:06;103037.66;;;7.46;63.30
72857;BME280;62742;52.136;4.500;2023-03-01T10:43:21;103023.88;;;7.79;63.66
72857;BME280;62742;52.136;4.500;2023-03-01T10:45:49;103023.72;;;8.01;65.00
72857;BME280;62742;52.136;4.500;2023-03-01T10:48:22;103024.84;;;8.10;61.13
72857;BME280;62742;52.136;4.500;2023-03-01T10:51:16;103011.66;;;8.07;59.91
72857;BME280;62742;52.136;4.500;2023-03-01T10:53:49;103011.19;;;7.91;61.13
72857;BME280;62742;52.136;4.500;2023-03-01T10:56:17;103016.31;;;7.88;61.23
72857;BME280;62742;52.136;4.500;2023-03-01T10:59:02;103012.72;;;8.13;59.77
72857;BME280;62742;52.136;4.500;2023-03-01T11:01:33;103013.72;;;8.17;60.97
72857;BME280;62742;52.136;4.500;2023-03-01T11:04:11;103017.78;;;8.37;60.60
72857;BME280;62742;52.136;4.500;2023-03-01T11:06:41;103013.09;;;7.97;62.01
72857;BME280;62742;52.136;4.500;2023-03-01T11:11:44;103011.72;;;8.08;59.50
72857;BME280;62742;52.136;4.500;2023-03-01T11:14:22;103008.91;;;8.32;57.11
72857;BME280;62742;52.136;4.500;2023-03-01T11:17:05;103000.22;;;8.03;57.81
72857;BME280;62742;52.136;4.500;2023-03-01T11:19:39;102992.56;;;8.41;56.69
72857;BME280;62742;52.136;4.500;2023-03-01T11:22:12;102989.59;;;8.29;56.81
72857;BME280;62742;52.136;4.500;2023-03-01T11:24:48;102979.41;;;8.39;58.25
72857;BME280;62742;52.136;4.500;2023-03-01T11:27:31;102982.09;;;8.11;57.37
72857;BME280;62742;52.136;4.500;2023-03-01T11:29:59;102977.03;;;8.46;59.05
72857;BME280;62742;52.136;4.500;2023-03-01T11:32:47;102967.25;;;8.11;55.77
72857;BME280;62742;52.136;4.500;2023-03-01T11:35:24;102960.69;;;8.26;57.33
72857;BME280;62742;52.136;4.500;2023-03-01T12:07:52;102926.09;;;8.69;48.16
72857;BME280;62742;52.136;4.500;2023-03-01T12:10:28;102926.19;;;8.72;48.83
72857;BME280;62742;52.136;4.500;2023-03-01T12:15:53;102922.31;;;8.58;46.58
72857;BME280;62742;52.136;4.500;2023-03-01T12:37:54;102880.19;;;8.50;51.02
72857;BME280;62742;52.136;4.500;2023-03-01T12:51:18;102895.94;;;8.52;48.23
72857;BME280;62742;52.136;4.500;2023-03-01T12:53:54;102896.63;;;9.14;48.07
72857;BME280;62742;52.136;4.500;2023-03-01T12:56:26;102882.72;;;8.46;49.50
72857;BME280;62742;52.136;4.500;2023-03-01T13:02:31;102876.16;;;8.63;50.09
72857;BME280;62742;52.136;4.500;2023-03-01T13:05:29;102876.91;;;8.59;49.12
72857;BME280;62742;52.136;4.500;2023-03-01T13:08:26;102876.59;;;8.80;47.26
72857;BME280;62742;52.136;4.500;2023-03-01T13:11:01;102872.31;;;8.84;48.30
72857;BME280;62742;52.136;4.500;2023-03-01T13:13:30;102867.75;;;8.11;49.06
72857;BME280;62742;52.136;4.500;2023-03-01T13:16:22;102856.97;;;7.99;49.04
72857;BME280;62742;52.136;4.500;2023-03-01T13:19:14;102861.13;;;8.24;49.32
72857;BME280;62742;52.136;4.500;2023-03-01T13:21:44;102861.81;;;8.17;48.85
72857;BME280;62742;52.136;4.500;2023-03-01T13:24:38;102855.34;;;7.72;49.84
72857;BME280;62742;52.136;4.500;2023-03-01T13:29:57;102863.53;;;8.15;50.25
72857;BME280;62742;52.136;4.500;2023-03-01T13:32:33;102847.47;;;8.69;49.16
72857;BME280;62742;52.136;4.500;2023-03-01T13:37:46;102852.25;;;7.87;49.63
72857;BME280;62742;52.136;4.500;2023-03-01T13:42:49;102845.94;;;8.11;49.65
72857;BME280;62742;52.136;4.500;2023-03-01T13:45:38;102822.28;;;8.76;49.62
72857;BME280;62742;52.136;4.500;2023-03-01T13:48:22;102824.97;;;8.77;48.29
72857;BME280;62742;52.136;4.500;2023-03-01T13:51:12;102820.06;;;8.93;49.55
72857;BME280;62742;52.136;4.500;2023-03-01T13:53:43;102816.81;;;9.03;49.76
72857;BME280;62742;52.136;4.500;2023-03-01T13:56:16;102812.03;;;8.49;48.51
72857;BME280;62742;52.136;4.500;2023-03-01T13:59:05;102812.03;;;8.49;47.79
72857;BME280;62742;52.136;4.500;2023-03-01T14:01:40;102808.72;;;8.56;49.45
72857;BME280;62742;52.136;4.500;2023-03-01T14:04:24;102806.88;;;8.52;49.03
72857;BME280;62742;52.136;4.500;2023-03-01T14:06:52;102797.91;;;8.43;49.03
72857;BME280;62742;52.136;4.500;2023-03-01T14:09:39;102784.38;;;8.27;50.32
72857;BME280;62742;52.136;4.500;2023-03-01T14:15:32;102788.31;;;8.79;49.28
72857;BME280;62742;52.136;4.500;2023-03-01T14:18:18;102789.34;;;8.49;48.85
72857;BME280;62742;52.136;4.500;2023-03-01T14:20:54;102790.59;;;8.30;49.81
72857;BME280;62742;52.136;4.500;2023-03-01T14:23:22;102774.72;;;8.24;49.61
72857;BME280;62742;52.136;4.500;2023-03-01T14:25:52;102781.47;;;8.16;49.10
72857;BME280;62742;52.136;4.500;2023-03-01T14:28:23;102767.66;;;8.21;49.16
72857;BME280;62742;52.136;4.500;2023-03-01T14:30:57;102768.59;;;7.90;50.10
72857;BME280;62742;52.136;4.500;2023-03-01T14:33:31;102762.84;;;8.03;50.02
72857;BME280;62742;52.136;4.500;2023-03-01T14:36:08;102751.19;;;7.92;50.81
72857;BME280;62742;52.136;4.500;2023-03-01T14:38:44;102749.63;;;7.65;51.47
72857;BME280;62742;52.136;4.500;2023-03-01T14:46:38;102746.75;;;8.58;50.10
72857;BME280;62742;52.136;4.500;2023-03-01T14:49:12;102740.69;;;8.60;50.34
72857;BME280;62742;52.136;4.500;2023-03-01T14:51:52;102733.31;;;8.42;49.36
72857;BME280;62742;52.136;4.500;2023-03-01T14:54:47;102727.41;;;8.18;49.78
72857;BME280;62742;52.136;4.500;2023-03-01T14:57:24;102720.41;;;8.17;49.97
72857;BME280;62742;52.136;4.500;2023-03-01T14:59:53;102729.03;;;8.13;49.16
72857;BME280;62742;52.136;4.500;2023-03-01T15:02:25;102716.94;;;8.18;49.69
72857;BME280;62742;52.136;4.500;2023-03-01T15:05:02;102719.88;;;7.95;49.51
72857;BME280;62742;52.136;4.500;2023-03-01T15:07:33;102720.69;;;7.93;51.18
72857;BME280;62742;52.136;4.500;2023-03-01T15:10:05;102720.03;;;8.01;51.00
72857;BME280;62742;52.136;4.500;2023-03-01T15:12:39;102718.13;;;7.96;51.66
72857;BME280;62742;52.136;4.500;2023-03-01T15:15:45;102725.66;;;7.83;51.22
72857;BME280;62742;52.136;4.500;2023-03-01T15:18:26;102718.75;;;7.85;51.69
72857;BME280;62742;52.136;4.500;2023-03-01T15:20:55;102725.63;;;7.82;50.81
72857;BME280;62742;52.136;4.500;2023-03-01T15:23:34;102716.41;;;7.63;51.57
72857;BME280;62742;52.136;4.500;2023-03-01T15:26:03;102711.75;;;7.84;51.41
72857;BME280;62742;52.136;4.500;2023-03-01T15:28:33;102705.78;;;7.90;50.45